Observations for Trim Market St
| Time | AQI | Temp °C | Hum % | Pres Pa | CO μg/m³ | H₂S μg/m³ | NO μg/m³ | NO₂ μg/m³ | O₃ μg/m³ | SO₂ μg/m³ | PM1 μg/m³ | PM2.5 μg/m³ | PM10 μg/m³ |
|---|---|---|---|---|---|---|---|---|---|---|---|---|---|
| Saturday 15 August 2026 | |||||||||||||
| 21:31 | 3 | 19.5 | 52 | 55,858 | 0 | 0 | 1.26 | 13.46 | 61.42 | 0 | 0.71 | 2.87 | 3.13 |
| 21:29 | 3 | 19.5 | 52 | 55,839 | 0 | 0 | 1.29 | 9.96 | 65.3 | 0 | 0.71 | 2.88 | 3.13 |
| 21:25 | 3 | 19.6 | 52 | 55,891 | 0.01 | 0 | 1.23 | 12.14 | 61.88 | 0 | 0 | 2.37 | 2.39 |
| 21:24 | 3 | 19.7 | 52 | 55,886 | 0 | 0 | 1.23 | 15.93 | 58.56 | 0 | 0 | 2.88 | 3.12 |
| 21:23 | 3 | 19.7 | 52 | 55,850 | 0 | 0 | 1.21 | 13.39 | 60.8 | 0 | 0 | 2.38 | 2.38 |
| 21:22 | 3 | 19.7 | 52 | 55,824 | 0 | 0 | 1.22 | 16.51 | 58.21 | 0 | 0 | 2.38 | 2.38 |
| 21:21 | 3 | 19.7 | 52 | 55,816 | 0 | 0 | 1.23 | 16.79 | 55.19 | 0 | 0.71 | 2.38 | 2.62 |
| 21:20 | 3 | 19.7 | 52 | 55,804 | 0 | 0 | 1.23 | 10.67 | 67.27 | 0 | 0 | 2.38 | 2.62 |
| 21:19 | 3 | 19.7 | 52 | 55,801 | 0 | 0 | 1.23 | 11.08 | 67.88 | 0 | 0 | 1.87 | 2.06 |
| 21:18 | 3 | 19.7 | 52 | 55,793 | 0 | 0 | 1.23 | 10.24 | 67.44 | 0 | 0 | 1.87 | 2.06 |
| 21:17 | 3 | 19.8 | 52 | 55,809 | 0 | 0 | 1.24 | 13.35 | 62.64 | 0 | 0 | 1.88 | 2.06 |
| 21:16 | 3 | 19.8 | 52 | 55,798 | 0 | 0 | 1.23 | 16.16 | 57.9 | 0 | 0 | 2.39 | 2.63 |
| 21:15 | 3 | 19.8 | 51 | 55,792 | 0.01 | 0 | 1.23 | 12.65 | 60.94 | 0 | 0 | 1.88 | 2.07 |
| 21:14 | 3 | 19.8 | 51 | 55,781 | 0.29 | 1.26 | 1.24 | 17.92 | 60.39 | 0 | 0 | 1.88 | 2.07 |
| 21:13 | 3 | 19.9 | 51 | 55,752 | 0 | 0 | 1.22 | 10.79 | 67.61 | 0 | 0 | 1.89 | 2.08 |
| 21:12 | 3 | 19.9 | 51 | 55,750 | 0.09 | 0 | 1.21 | 17.28 | 59.87 | 0 | 0.71 | 2.92 | 3.09 |
| 21:09 | 3 | 19.9 | 51 | 55,745 | 0 | 0 | 1.31 | 18.77 | 58.33 | 0 | 0 | 2.41 | 3.09 |
| 21:04 | 3 | 20 | 51 | 55,761 | 0 | 0 | 1.2 | 14.07 | 60.49 | 0 | 0 | 2.43 | 2.67 |
| 20:59 | 3 | 20.1 | 50 | 55,927 | 0 | 0 | 1.2 | 40.89 | 40.78 | 0 | 0 | 2.45 | 2.69 |
| 20:58 | 3 | 20.1 | 50 | 56,001 | 0 | 0 | 1.19 | 49.49 | 30.96 | 0 | 0 | 1.94 | 2.13 |